createdAt,value
2018-03-31T00:00:51.791Z,0
2018-03-31T00:01:52.442Z,0
2018-03-31T00:02:53.094Z,0
2018-03-31T00:03:53.747Z,0
2018-03-31T00:04:54.398Z,0
2018-03-31T00:05:55.048Z,0
2018-03-31T00:06:55.702Z,0
2018-03-31T00:07:56.356Z,0
2018-03-31T00:08:57.008Z,0
2018-03-31T00:09:57.660Z,0
2018-03-31T00:10:58.311Z,0
2018-03-31T00:11:58.965Z,0
2018-03-31T00:12:59.616Z,0
2018-03-31T00:14:00.270Z,0
2018-03-31T00:15:00.920Z,0
2018-03-31T00:16:01.574Z,0
2018-03-31T00:17:02.225Z,0
2018-03-31T00:18:02.881Z,0
2018-03-31T00:19:03.529Z,0
2018-03-31T00:20:04.183Z,0
2018-03-31T00:21:04.834Z,0
2018-03-31T00:22:05.488Z,0
2018-03-31T00:23:06.141Z,0
2018-03-31T00:24:06.793Z,0
2018-03-31T00:25:07.442Z,0
2018-03-31T00:26:08.093Z,0
2018-03-31T00:27:08.747Z,0
2018-03-31T00:28:09.397Z,0
2018-03-31T00:29:10.050Z,0
2018-03-31T00:30:10.702Z,0
2018-03-31T00:31:11.353Z,0
2018-03-31T00:32:12.004Z,0
2018-03-31T00:33:12.657Z,0
2018-03-31T00:34:13.309Z,0
2018-03-31T00:35:13.962Z,0
2018-03-31T00:36:14.615Z,0
2018-03-31T00:37:15.263Z,0
2018-03-31T00:38:15.917Z,0
2018-03-31T00:39:16.568Z,0
2018-03-31T00:40:17.220Z,0
2018-03-31T00:41:17.872Z,0
2018-03-31T00:42:18.561Z,0
2018-03-31T00:43:19.211Z,0
2018-03-31T00:44:19.862Z,0
2018-03-31T00:45:20.515Z,0
2018-03-31T00:46:21.168Z,0
2018-03-31T00:47:21.825Z,0
2018-03-31T00:48:22.472Z,0
2018-03-31T00:49:23.125Z,0
2018-03-31T00:50:23.779Z,0
2018-03-31T00:51:24.540Z,0
2018-03-31T00:52:25.122Z,0
2018-03-31T00:53:25.776Z,0
2018-03-31T00:54:26.427Z,0
2018-03-31T00:55:27.083Z,0
2018-03-31T00:56:27.730Z,0
2018-03-31T00:57:28.384Z,0
2018-03-31T00:58:29.034Z,0
2018-03-31T00:59:29.686Z,0
2018-03-31T01:00:30.337Z,0
2018-03-31T01:01:30.988Z,0
2018-03-31T01:02:31.640Z,0
2018-03-31T01:03:32.336Z,0
2018-03-31T01:04:32.988Z,0
2018-03-31T01:05:33.639Z,0
2018-03-31T01:06:34.295Z,0
2018-03-31T01:07:34.942Z,0
2018-03-31T01:08:35.594Z,0
2018-03-31T01:09:36.250Z,0
2018-03-31T01:10:36.895Z,0
2018-03-31T01:11:37.585Z,0
2018-03-31T01:12:38.237Z,0
2018-03-31T01:13:38.888Z,0
2018-03-31T01:14:39.579Z,0
2018-03-31T01:15:40.230Z,0
2018-03-31T01:16:40.881Z,0
2018-03-31T01:17:41.532Z,0
2018-03-31T01:18:42.187Z,0
2018-03-31T01:19:42.836Z,0
2018-03-31T01:20:43.490Z,0
2018-03-31T01:21:44.142Z,0
2018-03-31T01:22:44.796Z,0
2018-03-31T01:23:45.447Z,0
2018-03-31T01:24:46.100Z,0
2018-03-31T01:25:46.757Z,0
2018-03-31T01:26:47.411Z,0
2018-03-31T01:27:48.094Z,0
2018-03-31T01:28:48.747Z,0
2018-03-31T01:29:49.399Z,0
2018-03-31T01:30:50.054Z,0
2018-03-31T01:31:50.702Z,0
2018-03-31T01:32:51.354Z,0
2018-03-31T01:33:52.044Z,0
2018-03-31T01:34:52.696Z,0
2018-03-31T01:35:53.349Z,0
2018-03-31T01:36:54.002Z,0
2018-03-31T01:37:54.654Z,0
2018-03-31T01:38:55.308Z,0
2018-03-31T01:39:55.959Z,0
2018-03-31T01:40:56.611Z,0
2018-03-31T01:41:57.263Z,0
2018-03-31T01:42:57.950Z,0
2018-03-31T01:43:58.602Z,0
2018-03-31T01:44:59.257Z,0
2018-03-31T01:45:59.909Z,0
2018-03-31T01:47:00.560Z,0
2018-03-31T01:48:01.212Z,0
2018-03-31T01:49:01.866Z,0
2018-03-31T01:50:02.520Z,0
2018-03-31T01:51:03.208Z,0
2018-03-31T01:52:03.861Z,0
2018-03-31T01:53:04.514Z,0
2018-03-31T01:54:05.166Z,0
2018-03-31T01:55:05.819Z,0
2018-03-31T01:56:06.473Z,0
2018-03-31T01:57:07.124Z,0
2018-03-31T01:58:07.775Z,0
2018-03-31T01:59:08.464Z,0
2018-03-31T02:00:09.119Z,0
2018-03-31T02:01:09.770Z,0
2018-03-31T02:02:10.423Z,0
2018-03-31T02:03:11.075Z,0
2018-03-31T02:04:11.728Z,0
2018-03-31T02:05:12.379Z,0
2018-03-31T02:06:13.031Z,0
2018-03-31T02:07:13.682Z,0
2018-03-31T02:08:14.335Z,0
2018-03-31T02:09:14.994Z,0
2018-03-31T02:10:15.639Z,0
2018-03-31T02:11:16.292Z,0
2018-03-31T02:12:16.944Z,0
2018-03-31T02:13:17.597Z,0
2018-03-31T02:14:18.251Z,0
2018-03-31T02:15:18.903Z,0
2018-03-31T02:16:19.557Z,0
2018-03-31T02:17:20.268Z,0
2018-03-31T02:18:20.861Z,0
2018-03-31T02:19:21.514Z,0
2018-03-31T02:20:22.203Z,0
2018-03-31T02:21:22.856Z,0
2018-03-31T02:22:23.507Z,0
2018-03-31T02:23:24.161Z,0
2018-03-31T02:24:24.813Z,0
2018-03-31T02:25:25.466Z,0
2018-03-31T02:26:26.117Z,0
2018-03-31T02:27:26.772Z,0
2018-03-31T02:28:27.459Z,0
2018-03-31T02:29:28.113Z,0
2018-03-31T02:30:28.765Z,0
2018-03-31T02:31:29.419Z,0
2018-03-31T02:32:30.070Z,0
2018-03-31T02:33:30.722Z,0
2018-03-31T02:34:31.375Z,0
2018-03-31T02:35:32.030Z,0
2018-03-31T02:36:32.680Z,0
2018-03-31T02:37:33.334Z,0
2018-03-31T02:38:33.985Z,0
2018-03-31T02:39:34.638Z,0
2018-03-31T02:40:35.293Z,0
2018-03-31T02:41:35.947Z,0
2018-03-31T02:42:36.607Z,0
2018-03-31T02:43:37.251Z,0
2018-03-31T02:44:37.901Z,0
2018-03-31T02:45:38.554Z,0
2018-03-31T02:46:39.206Z,0
2018-03-31T02:47:39.860Z,0
2018-03-31T02:48:40.510Z,0
2018-03-31T02:49:41.162Z,0
2018-03-31T02:50:41.834Z,0
2018-03-31T02:51:42.468Z,0
2018-03-31T02:52:43.123Z,0
2018-03-31T02:53:43.790Z,0
2018-03-31T02:54:44.424Z,0
2018-03-31T02:55:45.077Z,0
2018-03-31T02:56:45.728Z,0
2018-03-31T02:57:46.382Z,0
2018-03-31T02:58:47.039Z,0
2018-03-31T02:59:47.686Z,0
2018-03-31T03:00:48.336Z,0
2018-03-31T03:01:48.989Z,0
2018-03-31T03:02:49.642Z,0
2018-03-31T03:03:50.293Z,0
2018-03-31T03:04:50.945Z,0
2018-03-31T03:05:51.599Z,0
2018-03-31T03:06:52.249Z,0
2018-03-31T03:07:52.908Z,0
2018-03-31T03:08:53.555Z,0
2018-03-31T03:09:54.208Z,0
2018-03-31T03:10:54.859Z,0
2018-03-31T03:11:55.515Z,0
2018-03-31T03:12:56.202Z,0
2018-03-31T03:13:56.855Z,0
2018-03-31T03:14:57.506Z,0
2018-03-31T03:15:58.159Z,0
2018-03-31T03:16:58.810Z,0
2018-03-31T03:17:59.461Z,0
2018-03-31T03:19:00.114Z,0
2018-03-31T03:20:00.768Z,0
2018-03-31T03:21:01.423Z,0
2018-03-31T03:22:02.119Z,0
2018-03-31T03:23:02.763Z,0
2018-03-31T03:24:03.415Z,0
2018-03-31T03:25:04.067Z,0
2018-03-31T03:26:04.769Z,0
2018-03-31T03:27:05.421Z,0
2018-03-31T03:28:06.073Z,0
2018-03-31T03:29:06.728Z,0
2018-03-31T03:30:07.415Z,0
2018-03-31T03:31:08.067Z,0
2018-03-31T03:32:08.719Z,0
2018-03-31T03:33:09.371Z,0
2018-03-31T03:34:10.059Z,0
2018-03-31T03:35:10.712Z,0
2018-03-31T03:36:11.366Z,0
2018-03-31T03:37:12.016Z,0
2018-03-31T03:38:12.667Z,0
2018-03-31T03:39:13.317Z,0
2018-03-31T03:40:13.970Z,0
2018-03-31T03:41:14.621Z,0
2018-03-31T03:42:15.273Z,0
2018-03-31T03:43:15.925Z,0
2018-03-31T03:44:16.580Z,0
2018-03-31T03:45:17.229Z,0
2018-03-31T03:46:17.881Z,0
2018-03-31T03:47:18.538Z,0
2018-03-31T03:48:19.222Z,0
2018-03-31T03:49:19.874Z,0
2018-03-31T03:50:20.560Z,0
2018-03-31T03:51:21.264Z,0
2018-03-31T03:52:21.913Z,0
2018-03-31T03:53:22.569Z,0
2018-03-31T03:54:23.215Z,0
2018-03-31T03:55:23.868Z,0
2018-03-31T03:56:24.520Z,0
2018-03-31T03:57:25.170Z,0
2018-03-31T03:58:25.823Z,0
2018-03-31T03:59:26.474Z,0
2018-03-31T04:00:27.126Z,0
2018-03-31T04:01:27.777Z,0
2018-03-31T04:02:28.429Z,0
2018-03-31T04:03:29.080Z,0
2018-03-31T04:04:29.731Z,0
2018-03-31T04:05:30.383Z,0
2018-03-31T04:06:31.034Z,0
2018-03-31T04:07:31.686Z,0
2018-03-31T04:08:32.335Z,0
2018-03-31T04:09:32.987Z,0
2018-03-31T04:10:33.638Z,0
2018-03-31T04:11:34.291Z,0
2018-03-31T04:12:34.946Z,0
2018-03-31T04:13:35.593Z,0
2018-03-31T04:14:36.246Z,0
2018-03-31T04:15:36.896Z,0
2018-03-31T04:16:37.548Z,0
2018-03-31T04:17:38.198Z,0
2018-03-31T04:18:38.851Z,0
2018-03-31T04:19:39.502Z,0
2018-03-31T04:20:40.152Z,0
2018-03-31T04:21:40.803Z,0
2018-03-31T04:22:41.455Z,0
2018-03-31T04:23:42.106Z,0
2018-03-31T04:24:42.758Z,0
2018-03-31T04:25:43.409Z,0
2018-03-31T04:26:44.061Z,0
2018-03-31T04:27:44.714Z,0
2018-03-31T04:28:45.364Z,0
2018-03-31T04:29:46.015Z,0
2018-03-31T04:30:46.667Z,0
2018-03-31T04:31:47.318Z,0
2018-03-31T04:32:47.971Z,0
2018-03-31T04:33:48.623Z,0
2018-03-31T04:34:49.275Z,0
2018-03-31T04:35:49.926Z,0
2018-03-31T04:36:50.578Z,0
2018-03-31T04:37:51.229Z,0
2018-03-31T04:38:51.882Z,0
2018-03-31T04:39:52.531Z,0
2018-03-31T04:40:53.189Z,0
2018-03-31T04:41:53.834Z,4
2018-03-31T04:42:54.521Z,4
2018-03-31T04:43:55.174Z,4
2018-03-31T04:44:55.826Z,4
2018-03-31T04:45:56.477Z,4
2018-03-31T04:46:57.127Z,4
2018-03-31T04:47:57.780Z,4
2018-03-31T04:48:58.430Z,0
2018-03-31T04:49:59.086Z,4
2018-03-31T04:50:59.733Z,4
2018-03-31T04:52:00.388Z,4
2018-03-31T04:53:01.074Z,8
2018-03-31T04:54:01.726Z,8
2018-03-31T04:55:02.422Z,8
2018-03-31T04:56:03.074Z,8
2018-03-31T04:57:03.718Z,8
2018-03-31T04:58:04.409Z,8
2018-03-31T04:59:05.023Z,12
2018-03-31T05:00:05.675Z,12
2018-03-31T05:01:06.327Z,16
2018-03-31T05:02:06.979Z,16
2018-03-31T05:03:07.629Z,20
2018-03-31T05:04:08.284Z,24
2018-03-31T05:05:08.936Z,28
2018-03-31T05:06:09.588Z,28
2018-03-31T05:07:10.241Z,36
2018-03-31T05:08:10.894Z,36
2018-03-31T05:09:11.545Z,36
2018-03-31T05:10:12.197Z,40
2018-03-31T05:11:12.852Z,40
2018-03-31T05:12:13.542Z,40
2018-03-31T05:13:14.229Z,36
2018-03-31T05:14:14.883Z,36
2018-03-31T05:15:15.536Z,40
2018-03-31T05:16:16.190Z,44
2018-03-31T05:17:16.843Z,52
2018-03-31T05:18:17.493Z,60
2018-03-31T05:19:18.146Z,72
2018-03-31T05:20:18.800Z,88
2018-03-31T05:21:19.454Z,88
2018-03-31T05:22:20.107Z,100
2018-03-31T05:23:20.760Z,112
2018-03-31T05:24:21.414Z,124
2018-03-31T05:25:22.071Z,140
2018-03-31T05:26:22.793Z,144
2018-03-31T05:27:23.412Z,148
2018-03-31T05:28:24.066Z,164
2018-03-31T05:29:24.723Z,172
2018-03-31T05:30:25.373Z,184
2018-03-31T05:31:26.026Z,196
2018-03-31T05:32:26.682Z,200
2018-03-31T05:33:27.369Z,188
2018-03-31T05:34:28.024Z,188
2018-03-31T05:35:28.676Z,192
2018-03-31T05:36:29.329Z,212
2018-03-31T05:37:29.986Z,228
2018-03-31T05:38:30.677Z,244
2018-03-31T05:39:31.331Z,256
2018-03-31T05:40:31.984Z,264
2018-03-31T05:41:32.638Z,296
2018-03-31T05:42:33.292Z,340
2018-03-31T05:43:33.945Z,360
2018-03-31T05:44:34.602Z,348
2018-03-31T05:45:35.258Z,364
2018-03-31T05:46:35.916Z,392
2018-03-31T05:47:36.567Z,396
2018-03-31T05:48:37.222Z,416
2018-03-31T05:49:37.941Z,468
2018-03-31T05:50:38.533Z,496
2018-03-31T05:51:39.188Z,504
2018-03-31T05:52:39.842Z,560
2018-03-31T05:53:40.495Z,604
2018-03-31T05:54:41.151Z,648
2018-03-31T05:55:41.806Z,656
2018-03-31T05:56:42.460Z,608
2018-03-31T05:57:43.121Z,600
2018-03-31T05:58:43.771Z,600
2018-03-31T05:59:44.424Z,584
2018-03-31T06:00:45.080Z,600
2018-03-31T06:01:45.734Z,688
2018-03-31T06:02:46.390Z,760
2018-03-31T06:03:47.047Z,712
2018-03-31T06:04:47.701Z,644
2018-03-31T06:05:48.354Z,612
2018-03-31T06:06:49.009Z,608
2018-03-31T06:07:49.662Z,632
2018-03-31T06:08:50.319Z,616
2018-03-31T06:09:50.974Z,592
2018-03-31T06:10:51.628Z,652
2018-03-31T06:11:52.284Z,672
2018-03-31T06:12:52.937Z,632
2018-03-31T06:13:53.592Z,600
2018-03-31T06:14:54.248Z,596
2018-03-31T06:15:54.902Z,596
2018-03-31T06:16:55.555Z,632
2018-03-31T06:17:56.210Z,644
2018-03-31T06:18:56.865Z,612
2018-03-31T06:19:57.520Z,564
2018-03-31T06:20:58.175Z,604
2018-03-31T06:21:58.829Z,676
2018-03-31T06:22:59.483Z,660
2018-03-31T06:24:00.138Z,632
2018-03-31T06:25:00.795Z,648
2018-03-31T06:26:01.453Z,728
2018-03-31T06:27:02.144Z,720
2018-03-31T06:28:02.796Z,716
2018-03-31T06:29:03.451Z,696
2018-03-31T06:30:04.106Z,740
2018-03-31T06:31:04.762Z,768
2018-03-31T06:32:05.417Z,756
2018-03-31T06:33:06.071Z,760
2018-03-31T06:34:06.725Z,768
2018-03-31T06:35:07.417Z,868
2018-03-31T06:36:08.084Z,912
2018-03-31T06:37:08.768Z,872
2018-03-31T06:38:09.419Z,808
2018-03-31T06:39:10.074Z,708
2018-03-31T06:40:10.729Z,624
2018-03-31T06:41:11.388Z,608
2018-03-31T06:42:12.041Z,632
2018-03-31T06:43:12.695Z,668
2018-03-31T06:44:13.349Z,704
2018-03-31T06:45:14.006Z,780
2018-03-31T06:46:14.697Z,852
2018-03-31T06:47:15.352Z,896
2018-03-31T06:48:16.008Z,948
2018-03-31T06:49:16.662Z,1032
2018-03-31T06:50:17.318Z,1144
2018-03-31T06:51:17.975Z,1260
2018-03-31T06:52:18.631Z,1312
2018-03-31T06:53:19.288Z,1260
2018-03-31T06:54:19.945Z,1136
2018-03-31T06:55:20.600Z,1000
2018-03-31T06:56:21.254Z,868
2018-03-31T06:57:21.947Z,764
2018-03-31T06:58:22.612Z,712
2018-03-31T06:59:23.259Z,688
2018-03-31T07:00:23.912Z,676
2018-03-31T07:01:24.572Z,672
2018-03-31T07:02:25.224Z,672
2018-03-31T07:03:25.876Z,684
2018-03-31T07:04:26.531Z,712
2018-03-31T07:05:27.187Z,740
2018-03-31T07:06:27.843Z,768
2018-03-31T07:07:28.535Z,836
2018-03-31T07:08:29.187Z,888
2018-03-31T07:09:29.844Z,908
2018-03-31T07:10:30.509Z,936
2018-03-31T07:11:31.155Z,920
2018-03-31T07:12:31.809Z,968
2018-03-31T07:13:32.466Z,1016
2018-03-31T07:14:33.122Z,1016
2018-03-31T07:15:33.847Z,1108
2018-03-31T07:16:34.472Z,1220
2018-03-31T07:17:35.127Z,1228
2018-03-31T07:18:35.782Z,1272
2018-03-31T07:19:36.439Z,1328
2018-03-31T07:20:37.094Z,1344
2018-03-31T07:21:37.753Z,1284
2018-03-31T07:22:38.411Z,1252
2018-03-31T07:23:39.066Z,1256
2018-03-31T07:24:39.764Z,1196
2018-03-31T07:25:40.379Z,1136
2018-03-31T07:26:41.071Z,1168
2018-03-31T07:27:41.727Z,1248
2018-03-31T07:28:42.395Z,1324
2018-03-31T07:29:43.042Z,1356
2018-03-31T07:30:43.698Z,1280
2018-03-31T07:31:44.353Z,1236
2018-03-31T07:32:45.010Z,1248
2018-03-31T07:33:45.666Z,1280
2018-03-31T07:34:46.323Z,1304
2018-03-31T07:35:46.980Z,1260
2018-03-31T07:36:47.636Z,1196
2018-03-31T07:37:48.292Z,1116
2018-03-31T07:38:48.947Z,1124
2018-03-31T07:39:49.604Z,1196
2018-03-31T07:40:50.259Z,1196
2018-03-31T07:41:50.920Z,1220
2018-03-31T07:42:51.572Z,1260
2018-03-31T07:43:52.228Z,1264
2018-03-31T07:44:52.883Z,1256
2018-03-31T07:45:53.540Z,1308
2018-03-31T07:46:54.198Z,1404
2018-03-31T07:47:54.853Z,1572
2018-03-31T07:48:55.511Z,1768
2018-03-31T07:49:56.168Z,1952
2018-03-31T07:50:56.824Z,2128
2018-03-31T07:51:57.482Z,2208
2018-03-31T07:52:58.137Z,2184
2018-03-31T07:53:58.792Z,2144
2018-03-31T07:54:59.449Z,2128
2018-03-31T07:56:00.108Z,2120
2018-03-31T07:57:00.766Z,2080
2018-03-31T07:58:01.422Z,2004
2018-03-31T07:59:02.079Z,2024
2018-03-31T08:00:02.773Z,2016
2018-03-31T08:01:03.432Z,1932
2018-03-31T08:02:04.127Z,1892
2018-03-31T08:03:04.783Z,1808
2018-03-31T08:04:05.440Z,1676
2018-03-31T08:05:06.094Z,1600
2018-03-31T08:06:06.751Z,1576
2018-03-31T08:07:07.406Z,1576
2018-03-31T08:08:08.062Z,1556
2018-03-31T08:09:08.719Z,1580
2018-03-31T08:10:09.374Z,1676
2018-03-31T08:11:10.029Z,1808
2018-03-31T08:12:10.684Z,2092
2018-03-31T08:13:11.340Z,2456
2018-03-31T08:14:11.995Z,2700
2018-03-31T08:15:12.651Z,2712
2018-03-31T08:16:13.308Z,2356
2018-03-31T08:17:13.961Z,1964
2018-03-31T08:18:14.618Z,1752
2018-03-31T08:19:15.276Z,1744
2018-03-31T08:20:15.929Z,1816
2018-03-31T08:21:16.589Z,1848
2018-03-31T08:22:17.242Z,1888
2018-03-31T08:23:17.895Z,1920
2018-03-31T08:24:18.555Z,1956
2018-03-31T08:25:19.207Z,2068
2018-03-31T08:26:19.865Z,2260
2018-03-31T08:27:20.519Z,2384
2018-03-31T08:28:21.174Z,2376
2018-03-31T08:29:21.829Z,2348
2018-03-31T08:30:22.512Z,2364
2018-03-31T08:31:23.140Z,2440
2018-03-31T08:32:23.796Z,2588
2018-03-31T08:33:24.490Z,2780
2018-03-31T08:34:25.145Z,2948
2018-03-31T08:35:25.801Z,3024
2018-03-31T08:36:26.456Z,3020
2018-03-31T08:37:27.111Z,2960
2018-03-31T08:38:27.768Z,2816
2018-03-31T08:39:28.424Z,2708
2018-03-31T08:40:29.082Z,2652
2018-03-31T08:41:29.738Z,2556
2018-03-31T08:42:30.400Z,2376
2018-03-31T08:43:31.050Z,2236
2018-03-31T08:44:31.707Z,2160
2018-03-31T08:45:32.364Z,2120
2018-03-31T08:46:33.017Z,2156
2018-03-31T08:47:33.676Z,2192
2018-03-31T08:48:34.336Z,2168
2018-03-31T08:49:35.023Z,2112
2018-03-31T08:50:35.683Z,2072
2018-03-31T08:51:36.338Z,2004
2018-03-31T08:52:36.993Z,1928
2018-03-31T08:53:37.649Z,1880
2018-03-31T08:54:38.304Z,1884
2018-03-31T08:55:38.961Z,1940
2018-03-31T08:56:39.621Z,1984
2018-03-31T08:57:40.311Z,2036
2018-03-31T08:58:40.967Z,2044
2018-03-31T08:59:41.625Z,2024
2018-03-31T09:00:42.316Z,1964
2018-03-31T09:01:43.009Z,1948
2018-03-31T09:02:43.665Z,1996
2018-03-31T09:03:44.321Z,2112
2018-03-31T09:04:44.977Z,2248
2018-03-31T09:05:45.634Z,2368
2018-03-31T09:06:46.291Z,2388
2018-03-31T09:07:46.945Z,2340
2018-03-31T09:08:47.602Z,2348
2018-03-31T09:09:48.258Z,2452
2018-03-31T09:10:48.914Z,2604
2018-03-31T09:11:49.569Z,2792
2018-03-31T09:12:50.228Z,2996
2018-03-31T09:13:50.921Z,3164
2018-03-31T09:14:51.578Z,3260
2018-03-31T09:15:52.236Z,3400
2018-03-31T09:16:52.895Z,3648
2018-03-31T09:17:53.552Z,3880
2018-03-31T09:18:54.212Z,4032
2018-03-31T09:19:54.869Z,4052
2018-03-31T09:20:55.526Z,4096
2018-03-31T09:21:56.191Z,4112
2018-03-31T09:22:56.841Z,4072
2018-03-31T09:23:57.499Z,3904
2018-03-31T09:24:58.156Z,3680
2018-03-31T09:25:58.821Z,3548
2018-03-31T09:26:59.475Z,3580
2018-03-31T09:28:00.132Z,3704
2018-03-31T09:29:00.790Z,3904
2018-03-31T09:30:01.449Z,3936
2018-03-31T09:31:02.110Z,3732
2018-03-31T09:32:02.763Z,3500
2018-03-31T09:33:03.423Z,3352
2018-03-31T09:34:04.082Z,3228
2018-03-31T09:35:04.742Z,3188
2018-03-31T09:36:05.400Z,3224
2018-03-31T09:37:06.058Z,3404
2018-03-31T09:38:06.715Z,3700
2018-03-31T09:39:07.376Z,3972
2018-03-31T09:40:08.030Z,4144
2018-03-31T09:41:08.688Z,4244
2018-03-31T09:42:09.349Z,4412
2018-03-31T09:43:10.003Z,4796
2018-03-31T09:44:10.660Z,5268
2018-03-31T09:45:11.319Z,5512
2018-03-31T09:46:11.977Z,5700
2018-03-31T09:47:12.635Z,5856
2018-03-31T09:48:13.293Z,5908
2018-03-31T09:49:13.989Z,5864
2018-03-31T09:50:14.646Z,5620
2018-03-31T09:51:15.305Z,5212
2018-03-31T09:52:15.962Z,4840
2018-03-31T09:53:16.618Z,4696
2018-03-31T09:54:17.278Z,4668
2018-03-31T09:55:17.939Z,4564
2018-03-31T09:56:18.596Z,4496
2018-03-31T09:57:19.291Z,4520
2018-03-31T09:58:19.950Z,4564
2018-03-31T09:59:20.608Z,4628
2018-03-31T10:00:21.267Z,4620
2018-03-31T10:01:21.926Z,4548
2018-03-31T10:02:22.586Z,4532
2018-03-31T10:03:23.243Z,4504
2018-03-31T10:04:23.901Z,4584
2018-03-31T10:05:24.561Z,4876
2018-03-31T10:06:25.219Z,5144
2018-03-31T10:07:25.878Z,5204
2018-03-31T10:08:26.536Z,5220
2018-03-31T10:09:27.197Z,5252
2018-03-31T10:10:27.906Z,5304
2018-03-31T10:11:28.566Z,5204
2018-03-31T10:12:29.261Z,4940
2018-03-31T10:13:29.881Z,4856
2018-03-31T10:14:30.540Z,4916
2018-03-31T10:15:31.255Z,4784
2018-03-31T10:16:31.908Z,4600
2018-03-31T10:17:32.566Z,4640
2018-03-31T10:18:33.225Z,4768
2018-03-31T10:19:33.885Z,4912
2018-03-31T10:20:34.592Z,4948
2018-03-31T10:21:35.256Z,4720
2018-03-31T10:22:35.941Z,4592
2018-03-31T10:23:36.567Z,4688
2018-03-31T10:24:37.226Z,5072
2018-03-31T10:25:37.883Z,5436
2018-03-31T10:26:38.542Z,5524
2018-03-31T10:27:39.202Z,5276
2018-03-31T10:28:39.860Z,5016
2018-03-31T10:29:40.519Z,4904
2018-03-31T10:30:41.181Z,4892
2018-03-31T10:31:41.836Z,4920
2018-03-31T10:32:42.494Z,4856
2018-03-31T10:33:43.152Z,4648
2018-03-31T10:34:43.812Z,4432
2018-03-31T10:35:44.470Z,4308
2018-03-31T10:36:45.128Z,4280
2018-03-31T10:37:45.787Z,4344
2018-03-31T10:38:46.483Z,4480
2018-03-31T10:39:47.145Z,4508
2018-03-31T10:40:47.851Z,4528
2018-03-31T10:41:48.509Z,4296
2018-03-31T10:42:49.169Z,3868
2018-03-31T10:43:49.827Z,3652
2018-03-31T10:44:50.484Z,3708
2018-03-31T10:45:51.147Z,3816
2018-03-31T10:46:51.804Z,3948
2018-03-31T10:47:52.462Z,4152
2018-03-31T10:48:53.123Z,4456
2018-03-31T10:49:53.784Z,4704
2018-03-31T10:50:54.442Z,5024
2018-03-31T10:51:55.101Z,5324
2018-03-31T10:52:55.759Z,5320
2018-03-31T10:53:56.417Z,5076
2018-03-31T10:54:57.075Z,4948
2018-03-31T10:55:57.733Z,4956
2018-03-31T10:56:58.394Z,4868
2018-03-31T10:57:59.053Z,4636
2018-03-31T10:58:59.710Z,4372
2018-03-31T11:00:00.369Z,4200
2018-03-31T11:01:01.027Z,4132
2018-03-31T11:02:01.685Z,4188
2018-03-31T11:03:02.383Z,4192
2018-03-31T11:04:03.042Z,4144
2018-03-31T11:05:03.701Z,4048
2018-03-31T11:06:04.360Z,4000
2018-03-31T11:07:05.017Z,3936
2018-03-31T11:08:05.676Z,3924
2018-03-31T11:09:06.335Z,4032
2018-03-31T11:10:06.995Z,4176
2018-03-31T11:11:07.656Z,4512
2018-03-31T11:12:08.319Z,4892
2018-03-31T11:13:08.976Z,5300
2018-03-31T11:14:09.630Z,5504
2018-03-31T11:15:10.289Z,5544
2018-03-31T11:16:10.948Z,5540
2018-03-31T11:17:11.606Z,5464
2018-03-31T11:18:12.266Z,5236
2018-03-31T11:19:12.924Z,4956
2018-03-31T11:20:13.582Z,4916
2018-03-31T11:21:14.240Z,5348
2018-03-31T11:22:14.900Z,6040
2018-03-31T11:23:15.559Z,6484
2018-03-31T11:24:16.218Z,6516
2018-03-31T11:25:16.878Z,6272
2018-03-31T11:26:17.539Z,6260
2018-03-31T11:27:18.198Z,6540
2018-03-31T11:28:18.856Z,6512
2018-03-31T11:29:19.517Z,6416
2018-03-31T11:30:20.177Z,6468
2018-03-31T11:31:20.838Z,6752
2018-03-31T11:32:21.500Z,6976
2018-03-31T11:33:22.158Z,6980
2018-03-31T11:34:22.820Z,6664
2018-03-31T11:35:23.481Z,6556
2018-03-31T11:36:24.144Z,6604
2018-03-31T11:37:24.836Z,6604
2018-03-31T11:38:25.495Z,6192
2018-03-31T11:39:26.159Z,5628
2018-03-31T11:40:26.816Z,5300
2018-03-31T11:41:27.479Z,5264
2018-03-31T11:42:28.183Z,5020
2018-03-31T11:43:28.828Z,5004
2018-03-31T11:44:29.487Z,5000
2018-03-31T11:45:30.150Z,5236
2018-03-31T11:46:30.810Z,5196
2018-03-31T11:47:31.470Z,5288
2018-03-31T11:48:32.134Z,5144
2018-03-31T11:49:32.829Z,4932
2018-03-31T11:50:33.490Z,5132
2018-03-31T11:51:34.150Z,5292
2018-03-31T11:52:34.810Z,4828
2018-03-31T11:53:35.469Z,4496
2018-03-31T11:54:36.130Z,4460
2018-03-31T11:55:36.791Z,4228
2018-03-31T11:56:37.450Z,4016
2018-03-31T11:57:38.109Z,3960
2018-03-31T11:58:38.769Z,3812
2018-03-31T11:59:39.427Z,3636
2018-03-31T12:00:40.095Z,3408
2018-03-31T12:01:40.746Z,3280
2018-03-31T12:02:41.407Z,3232
2018-03-31T12:03:42.063Z,3084
2018-03-31T12:04:42.722Z,2904
2018-03-31T12:05:43.380Z,2872
2018-03-31T12:06:44.041Z,3076
2018-03-31T12:07:44.736Z,3312
2018-03-31T12:08:45.395Z,3128
2018-03-31T12:09:46.053Z,3284
2018-03-31T12:10:46.710Z,3436
2018-03-31T12:11:47.369Z,3508
2018-03-31T12:12:48.028Z,3876
2018-03-31T12:13:48.685Z,4196
2018-03-31T12:14:49.345Z,4080
2018-03-31T12:15:50.005Z,4868
2018-03-31T12:16:50.663Z,4776
2018-03-31T12:17:51.321Z,5508
2018-03-31T12:18:52.013Z,7212
2018-03-31T12:19:52.640Z,6632
2018-03-31T12:20:53.299Z,6124
2018-03-31T12:21:53.959Z,6108
2018-03-31T12:22:54.621Z,6504
2018-03-31T12:23:55.283Z,7800
2018-03-31T12:24:55.946Z,7588
2018-03-31T12:25:56.601Z,7848
2018-03-31T12:26:57.261Z,9152
2018-03-31T12:27:57.921Z,9572
2018-03-31T12:28:58.584Z,9380
2018-03-31T12:29:59.241Z,9308
2018-03-31T12:30:59.905Z,8528
2018-03-31T12:32:00.604Z,8164
2018-03-31T12:33:01.264Z,7340
2018-03-31T12:34:01.925Z,6536
2018-03-31T12:35:02.586Z,6688
2018-03-31T12:36:03.249Z,6512
2018-03-31T12:37:03.909Z,6492
2018-03-31T12:38:04.574Z,6596
2018-03-31T12:39:05.234Z,6864
2018-03-31T12:40:05.892Z,7104
2018-03-31T12:41:06.590Z,7672
2018-03-31T12:42:07.250Z,8068
2018-03-31T12:43:07.911Z,8556
2018-03-31T12:44:08.572Z,8780
2018-03-31T12:45:09.231Z,8756
2018-03-31T12:46:09.895Z,8476
2018-03-31T12:47:10.556Z,8256
2018-03-31T12:48:11.219Z,7216
2018-03-31T12:49:11.881Z,7476
2018-03-31T12:50:12.580Z,7852
2018-03-31T12:51:13.241Z,7756
2018-03-31T12:52:13.962Z,6992
2018-03-31T12:53:14.562Z,6548
2018-03-31T12:54:15.225Z,6780
2018-03-31T12:55:15.887Z,6580
2018-03-31T12:56:16.551Z,5920
2018-03-31T12:57:17.213Z,5972
2018-03-31T12:58:17.875Z,5528
2018-03-31T12:59:18.535Z,5048
2018-03-31T13:00:19.194Z,5388
2018-03-31T13:01:19.856Z,6128
2018-03-31T13:02:20.518Z,6172
2018-03-31T13:03:21.215Z,5820
2018-03-31T13:04:21.878Z,5484
2018-03-31T13:05:22.543Z,5080
2018-03-31T13:06:23.197Z,5624
2018-03-31T13:07:23.859Z,5288
2018-03-31T13:08:24.520Z,5128
2018-03-31T13:09:25.183Z,5412
2018-03-31T13:10:25.850Z,5652
2018-03-31T13:11:26.507Z,6224
2018-03-31T13:12:27.174Z,6472
2018-03-31T13:13:27.830Z,6472
2018-03-31T13:14:28.489Z,6448
2018-03-31T13:15:29.188Z,6788
2018-03-31T13:16:29.849Z,7980
2018-03-31T13:17:30.509Z,8452
2018-03-31T13:18:31.170Z,8508
2018-03-31T13:19:31.834Z,7556
2018-03-31T13:20:32.498Z,8188
2018-03-31T13:21:33.160Z,8796
2018-03-31T13:22:33.821Z,8456
2018-03-31T13:23:34.482Z,6748
2018-03-31T13:24:35.142Z,5736
2018-03-31T13:25:35.804Z,5660
2018-03-31T13:26:36.470Z,6508
2018-03-31T13:27:37.165Z,5448
2018-03-31T13:28:37.826Z,3760
2018-03-31T13:29:38.490Z,4620
2018-03-31T13:30:39.150Z,5500
2018-03-31T13:31:39.810Z,4704
2018-03-31T13:32:40.470Z,3264
2018-03-31T13:33:41.130Z,3148
2018-03-31T13:34:41.791Z,3780
2018-03-31T13:35:42.452Z,3604
2018-03-31T13:36:43.113Z,4148
2018-03-31T13:37:43.774Z,4048
2018-03-31T13:38:44.436Z,3652
2018-03-31T13:39:45.095Z,3780
2018-03-31T13:40:45.754Z,3860
2018-03-31T13:41:46.452Z,3600
2018-03-31T13:42:47.111Z,3668
2018-03-31T13:43:47.771Z,3564
2018-03-31T13:44:48.433Z,3748
2018-03-31T13:45:49.096Z,3796
2018-03-31T13:46:49.756Z,3544
2018-03-31T13:47:50.414Z,3488
2018-03-31T13:48:51.115Z,3408
2018-03-31T13:49:51.772Z,3504
2018-03-31T13:50:52.429Z,3564
2018-03-31T13:51:53.089Z,3736
2018-03-31T13:52:53.749Z,3976
2018-03-31T13:53:54.406Z,3232
2018-03-31T13:54:55.064Z,3108
2018-03-31T13:55:55.724Z,3544
2018-03-31T13:56:56.419Z,4000
2018-03-31T13:57:57.117Z,4228
2018-03-31T13:58:57.776Z,4340
2018-03-31T13:59:58.438Z,4372
2018-03-31T14:00:59.094Z,4056
2018-03-31T14:01:59.754Z,4828